Time;durP1;ratioP1;P1;durP2;ratioP2;P2;SDS_P1;SDS_P2;PMS_P1;PMS_P2;Temp;Humidity;BMP_temperature;BMP_pressure;BME280_temperature;BME280_humidity;BME280_pressure;Samples;Min_cycle;Max_cycle;Signal;HPM_P1;HPM_P2
2023/06/14 00:01:58;;;;;;;7.03;2.80;;;;;;;;;;5018142;28;92082;-71
2023/06/14 00:04:25;;;;;;;8.98;3.35;;;;;;;;;;5035431;28;92424;-71
2023/06/14 00:06:52;;;;;;;7.55;2.88;;;;;;;;;;5035639;28;94538;-70
2023/06/14 00:09:18;;;;;;;10.65;2.58;;;;;;;;;;5033872;28;94980;-71
2023/06/14 00:11:45;;;;;;;5.45;3.05;;;;;;;;;;5035460;28;99542;-71
2023/06/14 00:14:11;;;;;;;10.68;3.15;;;;;;;;;;5035220;28;93548;-71
2023/06/14 00:16:38;;;;;;;7.90;3.00;;;;;;;;;;5035101;27;92471;-70
2023/06/14 00:19:05;;;;;;;13.45;2.95;;;;;;;;;;5038519;28;94232;-71
2023/06/14 00:21:31;;;;;;;7.63;3.00;;;;;;;;;;5035105;28;92736;-70
2023/06/14 00:23:58;;;;;;;8.63;2.80;;;;;;;;;;5035326;28;92619;-70
2023/06/14 00:26:26;;;;;;;14.18;3.17;;;;;;;;;;5027484;27;92997;-71
2023/06/14 00:28:52;;;;;;;23.08;3.45;;;;;;;;;;4993970;28;92488;-70
2023/06/14 00:31:18;;;;;;;11.63;3.13;;;;;;;;;;4993649;28;93349;-71
2023/06/14 00:33:46;;;;;;;10.43;3.03;;;;;;;;;;4993279;28;96011;-71
2023/06/14 00:36:12;;;;;;;10.52;3.13;;;;;;;;;;4995130;28;92475;-71
2023/06/14 00:38:39;;;;;;;9.73;2.95;;;;;;;;;;4993614;28;93355;-70
2023/06/14 00:41:05;;;;;;;9.02;2.60;;;;;;;;;;4997763;28;93491;-71
2023/06/14 00:43:31;;;;;;;10.93;3.20;;;;;;;;;;4995063;28;94391;-70
2023/06/14 00:45:58;;;;;;;8.15;2.65;;;;;;;;;;4994726;28;93452;-71
2023/06/14 00:48:24;;;;;;;13.38;3.08;;;;;;;;;;4975137;28;92668;-71
2023/06/14 00:50:52;;;;;;;16.75;3.20;;;;;;;;;;4975550;28;93372;-70
2023/06/14 00:53:20;;;;;;;10.63;2.80;;;;;;;;;;4974937;28;94426;-71
2023/06/14 00:55:47;;;;;;;7.93;3.30;;;;;;;;;;4974849;28;92479;-71
2023/06/14 00:58:13;;;;;;;4.20;2.88;;;;;;;;;;4973397;28;94805;-70
2023/06/14 01:00:40;;;;;;;7.50;2.80;;;;;;;;;;4974646;28;93489;-70
2023/06/14 01:03:07;;;;;;;3.60;2.83;;;;;;;;;;4977613;28;92479;-70
2023/06/14 01:05:34;;;;;;;5.68;2.58;;;;;;;;;;4974521;28;93354;-70
2023/06/14 01:08:00;;;;;;;8.20;2.80;;;;;;;;;;4974851;28;92422;-70
2023/06/14 01:10:49;;;;;;;6.32;2.88;;;;;;;;;;4973387;28;93220;-71
2023/06/14 01:13:17;;;;;;;10.85;2.95;;;;;;;;;;4974567;28;93404;-71
2023/06/14 01:15:44;;;;;;;9.20;2.90;;;;;;;;;;4975237;28;91718;-71
2023/06/14 01:18:16;;;;;;;6.93;2.60;;;;;;;;;;4993095;28;92601;-71
2023/06/14 01:20:44;;;;;;;15.18;3.30;;;;;;;;;;4994548;28;93921;-71
2023/06/14 01:23:15;;;;;;;11.30;3.00;;;;;;;;;;4993088;28;95103;-71
2023/06/14 01:25:44;;;;;;;19.63;2.95;;;;;;;;;;4997931;28;95607;-72
2023/06/14 01:28:11;;;;;;;4.75;2.72;;;;;;;;;;5034389;28;92464;-70
2023/06/14 01:30:38;;;;;;;9.07;2.88;;;;;;;;;;5034636;28;94656;-71
2023/06/14 01:33:05;;;;;;;9.48;2.90;;;;;;;;;;5033895;28;94106;-70
2023/06/14 01:35:31;;;;;;;11.73;2.90;;;;;;;;;;5034005;28;92454;-71
2023/06/14 01:37:59;;;;;;;10.60;3.33;;;;;;;;;;5034101;28;92925;-70
2023/06/14 01:40:26;;;;;;;9.15;3.05;;;;;;;;;;5038464;27;92689;-70
2023/06/14 01:42:52;;;;;;;11.23;3.50;;;;;;;;;;5040679;28;92442;-70
2023/06/14 01:45:19;;;;;;;7.43;3.22;;;;;;;;;;5043533;28;93040;-70
2023/06/14 01:47:46;;;;;;;13.65;2.42;;;;;;;;;;5039320;28;94851;-70
2023/06/14 01:50:13;;;;;;;10.85;2.97;;;;;;;;;;5040580;28;95651;-70
2023/06/14 01:52:40;;;;;;;5.80;2.80;;;;;;;;;;5040385;28;93353;-70
2023/06/14 01:55:07;;;;;;;7.22;2.97;;;;;;;;;;5040610;27;92766;-70
2023/06/14 01:57:34;;;;;;;12.15;2.95;;;;;;;;;;5040382;28;93298;-70
2023/06/14 02:00:00;;;;;;;6.10;2.80;;;;;;;;;;5040297;28;93753;-70
2023/06/14 02:02:27;;;;;;;8.55;3.30;;;;;;;;;;5040749;28;92434;-71
2023/06/14 02:04:57;;;;;;;8.88;3.20;;;;;;;;;;5041178;28;92799;-70
2023/06/14 02:07:23;;;;;;;14.90;3.20;;;;;;;;;;5043737;27;94518;-70
2023/06/14 02:09:50;;;;;;;12.27;3.00;;;;;;;;;;5040328;28;93569;-71
2023/06/14 02:12:17;;;;;;;9.02;3.42;;;;;;;;;;5038533;28;95862;-70
2023/06/14 02:14:44;;;;;;;12.43;2.80;;;;;;;;;;5040570;28;92527;-70
2023/06/14 02:17:11;;;;;;;15.48;3.30;;;;;;;;;;5029864;28;93249;-70
2023/06/14 02:19:38;;;;;;;7.25;3.50;;;;;;;;;;5020300;28;94888;-70
2023/06/14 02:22:04;;;;;;;11.48;2.92;;;;;;;;;;5020060;28;92544;-70
2023/06/14 02:24:31;;;;;;;8.75;3.13;;;;;;;;;;5020059;28;93151;-69
2023/06/14 02:26:57;;;;;;;9.10;3.20;;;;;;;;;;5019296;28;93660;-71
2023/06/14 02:29:23;;;;;;;7.57;3.35;;;;;;;;;;5023815;28;91853;-70
2023/06/14 02:31:50;;;;;;;6.10;2.83;;;;;;;;;;5019412;28;93477;-70
2023/06/14 02:34:17;;;;;;;9.82;3.15;;;;;;;;;;5019975;28;92508;-70
2023/06/14 02:36:45;;;;;;;7.35;3.20;;;;;;;;;;5018319;28;94764;-70
2023/06/14 02:39:11;;;;;;;7.13;3.38;;;;;;;;;;5019824;28;93614;-70
2023/06/14 02:41:38;;;;;;;6.97;3.10;;;;;;;;;;5020227;28;92499;-70
2023/06/14 02:44:04;;;;;;;10.60;3.20;;;;;;;;;;5019553;28;93066;-70
2023/06/14 02:46:31;;;;;;;15.13;3.45;;;;;;;;;;5019607;28;93615;-70
2023/06/14 02:48:57;;;;;;;11.48;3.13;;;;;;;;;;5019791;28;92474;-70
2023/06/14 02:51:24;;;;;;;12.10;3.00;;;;;;;;;;5020335;28;92364;-70
2023/06/14 02:53:51;;;;;;;7.63;3.20;;;;;;;;;;5016828;28;91677;-70
2023/06/14 02:56:19;;;;;;;11.75;3.67;;;;;;;;;;5016608;28;92498;-70
2023/06/14 02:58:46;;;;;;;15.07;3.35;;;;;;;;;;5015595;28;93396;-70
2023/06/14 03:01:13;;;;;;;11.00;3.25;;;;;;;;;;5014893;28;94936;-70
2023/06/14 03:03:40;;;;;;;8.27;3.60;;;;;;;;;;5016088;28;95570;-70
2023/06/14 03:06:08;;;;;;;9.75;3.60;;;;;;;;;;5016066;28;93444;-70
2023/06/14 03:08:38;;;;;;;11.05;3.65;;;;;;;;;;5016181;28;92458;-70
2023/06/14 03:11:05;;;;;;;10.43;3.97;;;;;;;;;;5016721;28;94664;-70
2023/06/14 03:13:32;;;;;;;5.40;3.10;;;;;;;;;;5018991;28;93709;-70
2023/06/14 03:16:02;;;;;;;3.55;3.17;;;;;;;;;;5016472;28;93138;-70
2023/06/14 03:18:35;;;;;;;9.57;3.05;;;;;;;;;;4999073;28;93755;-70
2023/06/14 03:21:02;;;;;;;10.05;3.47;;;;;;;;;;5016170;28;92420;-70
2023/06/14 03:23:29;;;;;;;15.73;3.42;;;;;;;;;;5015712;28;93464;-70
2023/06/14 03:25:55;;;;;;;17.52;3.33;;;;;;;;;;5013412;28;95852;-70
2023/06/14 03:28:22;;;;;;;8.70;3.45;;;;;;;;;;5015952;28;92437;-70
2023/06/14 03:30:48;;;;;;;5.75;3.38;;;;;;;;;;5015520;28;93615;-69
2023/06/14 03:33:15;;;;;;;10.77;3.25;;;;;;;;;;5015225;28;93415;-70
2023/06/14 03:35:41;;;;;;;12.23;3.60;;;;;;;;;;5019074;28;92585;-70
2023/06/14 03:38:08;;;;;;;8.30;3.20;;;;;;;;;;5015362;28;93428;-70
2023/06/14 03:40:34;;;;;;;6.65;3.35;;;;;;;;;;5015460;28;92477;-70
2023/06/14 03:43:01;;;;;;;5.85;3.20;;;;;;;;;;5015941;28;93285;-70
2023/06/14 03:45:27;;;;;;;9.15;3.20;;;;;;;;;;5015245;28;93486;-70
2023/06/14 03:47:54;;;;;;;10.30;3.53;;;;;;;;;;5032210;28;92577;-70
2023/06/14 03:50:21;;;;;;;17.55;3.75;;;;;;;;;;5016354;28;94855;-70
2023/06/14 03:52:48;;;;;;;13.30;3.42;;;;;;;;;;5035454;27;93379;-70
2023/06/14 03:55:16;;;;;;;9.75;3.67;;;;;;;;;;5038498;27;92453;-70
2023/06/14 03:57:45;;;;;;;12.18;3.53;;;;;;;;;;5033530;28;93161;-70
2023/06/14 04:00:12;;;;;;;22.73;3.22;;;;;;;;;;5035749;28;93616;-70
2023/06/14 04:02:38;;;;;;;16.98;3.65;;;;;;;;;;5035512;27;94396;-70
2023/06/14 04:05:08;;;;;;;7.50;3.05;;;;;;;;;;5035464;28;94409;-71
2023/06/14 04:07:39;;;;;;;9.03;3.23;;;;;;;;;;5035367;27;91801;-71
2023/06/14 04:10:07;;;;;;;12.95;3.05;;;;;;;;;;5035126;27;92897;-71
2023/06/14 04:12:34;;;;;;;15.02;3.55;;;;;;;;;;5035340;27;94330;-71
2023/06/14 04:15:00;;;;;;;15.27;3.35;;;;;;;;;;5033469;28;94842;-71
2023/06/14 04:17:45;;;;;;;14.63;3.55;;;;;;;;;;5037639;28;95591;-71
2023/06/14 04:20:11;;;;;;;14.07;3.47;;;;;;;;;;5034955;28;93155;-71
2023/06/14 04:22:37;;;;;;;16.35;3.35;;;;;;;;;;5034852;28;93203;-71
2023/06/14 04:25:06;;;;;;;13.95;3.17;;;;;;;;;;5034545;28;93517;-71
2023/06/14 04:27:34;;;;;;;15.32;3.22;;;;;;;;;;5035064;27;92420;-71
2023/06/14 04:30:02;;;;;;;12.77;3.55;;;;;;;;;;5034662;27;93390;-71
2023/06/14 04:32:29;;;;;;;14.52;3.08;;;;;;;;;;5034881;27;92858;-70
2023/06/14 04:34:56;;;;;;;6.03;3.20;;;;;;;;;;5034920;28;92346;-70
2023/06/14 04:37:22;;;;;;;8.15;3.40;;;;;;;;;;5035274;28;94276;-70
2023/06/14 04:39:49;;;;;;;7.68;3.08;;;;;;;;;;5036502;27;96854;-70
2023/06/14 04:42:16;;;;;;;7.75;3.35;;;;;;;;;;5034471;28;94598;-70
2023/06/14 04:44:43;;;;;;;6.32;2.80;;;;;;;;;;5016431;28;93608;-71
2023/06/14 04:47:11;;;;;;;10.68;3.42;;;;;;;;;;5034483;27;92474;-71
2023/06/14 04:49:37;;;;;;;15.23;3.63;;;;;;;;;;5034662;28;93412;-70
2023/06/14 04:52:04;;;;;;;9.20;3.13;;;;;;;;;;5034448;28;93529;-70
2023/06/14 04:54:33;;;;;;;11.98;3.30;;;;;;;;;;5034490;28;92432;-70
2023/06/14 04:57:00;;;;;;;8.02;3.20;;;;;;;;;;5034916;28;93461;-70
2023/06/14 04:59:26;;;;;;;8.25;3.28;;;;;;;;;;5034268;27;93798;-70
2023/06/14 05:01:53;;;;;;;10.20;3.28;;;;;;;;;;5037288;28;92498;-70
2023/06/14 05:04:21;;;;;;;6.07;3.20;;;;;;;;;;5032567;28;96102;-70
2023/06/14 05:06:50;;;;;;;10.32;3.13;;;;;;;;;;5035052;27;92542;-70
2023/06/14 05:09:16;;;;;;;11.32;3.35;;;;;;;;;;5034839;28;94496;-71
2023/06/14 05:11:43;;;;;;;21.40;3.50;;;;;;;;;;5034011;28;93482;-70
2023/06/14 05:14:10;;;;;;;9.07;2.90;;;;;;;;;;5033114;28;92416;-71
2023/06/14 05:16:37;;;;;;;17.33;3.42;;;;;;;;;;5034178;28;93363;-70
2023/06/14 05:19:06;;;;;;;10.30;3.28;;;;;;;;;;5034286;28;93409;-70
2023/06/14 05:21:34;;;;;;;20.30;3.50;;;;;;;;;;5034349;28;91697;-70
2023/06/14 05:24:08;;;;;;;7.20;3.25;;;;;;;;;;5037344;28;92389;-70
2023/06/14 05:26:35;;;;;;;14.52;3.33;;;;;;;;;;5033493;28;92500;-70
2023/06/14 05:29:02;;;;;;;14.15;3.63;;;;;;;;;;5032571;28;94794;-70
2023/06/14 05:31:29;;;;;;;13.32;3.30;;;;;;;;;;5033630;28;93475;-71
2023/06/14 05:33:55;;;;;;;6.80;2.88;;;;;;;;;;5033807;28;92895;-70
2023/06/14 05:36:22;;;;;;;12.98;3.40;;;;;;;;;;5034099;27;93126;-70
2023/06/14 05:38:48;;;;;;;14.15;3.30;;;;;;;;;;5033573;27;93644;-70
2023/06/14 05:41:14;;;;;;;11.57;2.80;;;;;;;;;;5033839;28;92534;-71
2023/06/14 05:43:41;;;;;;;4.93;2.75;;;;;;;;;;5033576;28;93165;-70
2023/06/14 05:46:07;;;;;;;9.32;3.15;;;;;;;;;;5037012;28;92788;-70
2023/06/14 05:48:33;;;;;;;12.95;2.85;;;;;;;;;;5033898;28;92791;-70
2023/06/14 05:51:00;;;;;;;6.95;2.60;;;;;;;;;;5033437;28;93494;-70
2023/06/14 05:53:26;;;;;;;4.80;2.63;;;;;;;;;;5032404;28;94834;-70
2023/06/14 05:55:54;;;;;;;6.15;2.97;;;;;;;;;;5033925;28;96587;-70
2023/06/14 05:58:21;;;;;;;8.40;2.95;;;;;;;;;;5033194;28;93880;-70
2023/06/14 06:00:48;;;;;;;14.70;2.78;;;;;;;;;;5033518;28;92482;-71
2023/06/14 06:03:14;;;;;;;5.35;2.78;;;;;;;;;;5033620;28;92396;-70
2023/06/14 06:05:41;;;;;;;7.10;2.88;;;;;;;;;;5036752;28;94484;-70
2023/06/14 06:08:07;;;;;;;10.57;3.22;;;;;;;;;;5034123;27;94111;-70
2023/06/14 06:10:33;;;;;;;8.45;3.05;;;;;;;;;;5033499;28;92764;-70
2023/06/14 06:13:00;;;;;;;7.93;2.50;;;;;;;;;;5033624;28;92386;-70
2023/06/14 06:15:26;;;;;;;10.15;2.95;;;;;;;;;;5034077;28;93056;-71
2023/06/14 06:17:52;;;;;;;15.77;3.65;;;;;;;;;;5031965;28;96870;-71
2023/06/14 06:20:27;;;;;;;17.05;3.28;;;;;;;;;;5033498;28;92464;-70
2023/06/14 06:22:55;;;;;;;12.23;3.33;;;;;;;;;;5033567;27;94204;-71
2023/06/14 06:25:22;;;;;;;9.68;3.28;;;;;;;;;;5033377;28;94645;-71
2023/06/14 06:27:48;;;;;;;15.95;3.03;;;;;;;;;;5039264;28;92375;-71
2023/06/14 06:30:15;;;;;;;8.30;2.90;;;;;;;;;;5036744;28;94508;-71
2023/06/14 06:32:42;;;;;;;7.88;2.70;;;;;;;;;;5036737;28;92455;-71
2023/06/14 06:35:10;;;;;;;5.18;2.97;;;;;;;;;;5037372;28;93207;-70
2023/06/14 06:37:37;;;;;;;17.13;3.35;;;;;;;;;;5036204;28;93768;-70
2023/06/14 06:40:05;;;;;;;14.30;2.83;;;;;;;;;;5037000;28;92456;-70
2023/06/14 06:42:32;;;;;;;7.03;2.60;;;;;;;;;;5035215;28;94922;-70
2023/06/14 06:44:58;;;;;;;14.43;3.15;;;;;;;;;;5036461;28;93502;-71
2023/06/14 06:47:25;;;;;;;8.65;2.33;;;;;;;;;;5036726;27;92467;-71
2023/06/14 06:49:51;;;;;;;10.73;3.05;;;;;;;;;;5039711;27;93183;-70
2023/06/14 06:52:17;;;;;;;11.55;2.95;;;;;;;;;;5036261;27;92468;-71
2023/06/14 06:54:44;;;;;;;10.52;3.13;;;;;;;;;;5037111;27;92921;-69
2023/06/14 06:57:10;;;;;;;5.57;2.72;;;;;;;;;;5036382;27;94581;-69
2023/06/14 06:59:37;;;;;;;11.45;2.58;;;;;;;;;;5037627;27;91742;-69
2023/06/14 07:02:03;;;;;;;11.13;2.78;;;;;;;;;;5036401;28;92826;-70
2023/06/14 07:04:31;;;;;;;9.77;2.78;;;;;;;;;;5036087;27;93456;-69
2023/06/14 07:06:57;;;;;;;8.80;2.58;;;;;;;;;;5034763;27;95000;-69
2023/06/14 07:09:24;;;;;;;17.88;2.75;;;;;;;;;;5036568;28;96584;-71
2023/06/14 07:11:50;;;;;;;6.22;2.90;;;;;;;;;;5020809;28;93589;-70
2023/06/14 07:14:17;;;;;;;9.95;2.75;;;;;;;;;;5018462;28;93335;-71
2023/06/14 07:16:43;;;;;;;14.52;2.72;;;;;;;;;;5036154;27;94646;-71
2023/06/14 07:19:10;;;;;;;10.13;2.65;;;;;;;;;;5035730;28;92441;-71
2023/06/14 07:21:38;;;;;;;15.30;2.92;;;;;;;;;;5036141;28;94327;-71
2023/06/14 07:24:06;;;;;;;4.47;2.20;;;;;;;;;;5036416;27;92861;-71
2023/06/14 07:26:33;;;;;;;8.40;2.30;;;;;;;;;;5035424;27;92431;-71
2023/06/14 07:29:00;;;;;;;3.15;2.03;;;;;;;;;;5036185;28;92490;-71
2023/06/14 07:31:27;;;;;;;7.20;2.58;;;;;;;;;;5016110;28;96363;-71
2023/06/14 07:33:53;;;;;;;16.52;2.38;;;;;;;;;;5039219;28;92359;-71
2023/06/14 07:36:20;;;;;;;6.18;2.75;;;;;;;;;;5035543;28;93574;-71
2023/06/14 07:38:46;;;;;;;4.07;2.50;;;;;;;;;;5035407;27;92660;-71
2023/06/14 07:41:13;;;;;;;9.10;2.40;;;;;;;;;;5035916;28;93292;-71
2023/06/14 07:43:39;;;;;;;4.13;2.33;;;;;;;;;;5035871;27;94499;-71
2023/06/14 07:46:05;;;;;;;6.03;2.20;;;;;;;;;;5035322;28;92460;-71
2023/06/14 07:48:33;;;;;;;2.80;2.30;;;;;;;;;;5036107;28;93125;-71
2023/06/14 07:51:01;;;;;;;5.25;2.30;;;;;;;;;;5035284;27;93634;-70
2023/06/14 07:53:27;;;;;;;8.60;2.13;;;;;;;;;;5035728;28;92445;-71
2023/06/14 07:55:54;;;;;;;7.60;2.03;;;;;;;;;;5036972;28;94765;-71
2023/06/14 07:58:20;;;;;;;3.85;1.80;;;;;;;;;;5035141;28;92456;-71
2023/06/14 08:00:47;;;;;;;3.67;1.80;;;;;;;;;;5035493;28;93443;-72
2023/06/14 08:03:14;;;;;;;9.02;2.00;;;;;;;;;;5035165;28;93614;-71
2023/06/14 08:05:40;;;;;;;2.85;1.70;;;;;;;;;;5035514;28;92760;-71
2023/06/14 08:08:07;;;;;;;5.32;1.90;;;;;;;;;;5035638;28;94405;-70
2023/06/14 08:10:33;;;;;;;3.38;1.75;;;;;;;;;;5035229;28;93377;-71
2023/06/14 08:12:59;;;;;;;3.28;1.75;;;;;;;;;;5035603;28;91706;-71
2023/06/14 08:15:26;;;;;;;9.77;1.95;;;;;;;;;;5037859;27;92655;-71
2023/06/14 08:17:52;;;;;;;3.80;1.73;;;;;;;;;;5034862;27;92534;-71
2023/06/14 08:20:19;;;;;;;4.38;1.50;;;;;;;;;;5033740;28;94762;-71
2023/06/14 08:22:47;;;;;;;3.10;1.30;;;;;;;;;;5034471;27;93450;-71
2023/06/14 08:25:14;;;;;;;9.35;1.83;;;;;;;;;;5017296;28;92750;-71
2023/06/14 08:27:41;;;;;;;7.25;2.00;;;;;;;;;;5034882;27;93270;-71
2023/06/14 08:30:08;;;;;;;1.88;1.50;;;;;;;;;;5035317;28;93316;-71
2023/06/14 08:32:34;;;;;;;3.10;1.60;;;;;;;;;;5034771;27;92508;-71
2023/06/14 08:35:02;;;;;;;3.25;1.60;;;;;;;;;;5017150;28;93204;-71
2023/06/14 08:37:45;;;;;;;3.45;1.40;;;;;;;;;;5038194;28;92785;-71
2023/06/14 08:40:21;;;;;;;9.52;2.10;;;;;;;;;;5034555;28;92348;-71
2023/06/14 08:42:52;;;;;;;6.35;1.40;;;;;;;;;;5034691;28;93511;-71
2023/06/14 08:45:23;;;;;;;7.30;1.83;;;;;;;;;;5015337;28;94900;-71
2023/06/14 08:47:57;;;;;;;12.95;1.70;;;;;;;;;;5034667;28;94211;-72
2023/06/14 08:50:31;;;;;;;5.47;1.17;;;;;;;;;;5033545;27;93384;-71
2023/06/14 08:53:03;;;;;;;6.45;1.23;;;;;;;;;;5034185;27;92483;-72
2023/06/14 08:55:32;;;;;;;2.38;1.65;;;;;;;;;;5035006;28;94197;-72
2023/06/14 08:58:03;;;;;;;1.40;1.30;;;;;;;;;;5034245;28;93491;-71
2023/06/14 09:00:30;;;;;;;5.03;1.75;;;;;;;;;;5036311;27;92492;-71
2023/06/14 09:02:58;;;;;;;2.72;1.50;;;;;;;;;;5034795;28;92911;-72
2023/06/14 09:05:26;;;;;;;2.97;1.35;;;;;;;;;;5034050;28;92467;-72
2023/06/14 09:07:54;;;;;;;4.82;1.42;;;;;;;;;;5034426;28;93168;-72
2023/06/14 09:10:21;;;;;;;5.00;1.30;;;;;;;;;;5032490;28;96175;-71
2023/06/14 09:12:48;;;;;;;2.22;1.25;;;;;;;;;;5034335;28;92503;-71
2023/06/14 09:15:14;;;;;;;3.08;1.30;;;;;;;;;;5034694;28;94615;-71
2023/06/14 09:17:41;;;;;;;6.38;1.60;;;;;;;;;;5033825;27;93639;-71
2023/06/14 09:20:17;;;;;;;3.97;1.38;;;;;;;;;;5016320;28;92703;-71
2023/06/14 09:22:44;;;;;;;13.70;1.42;;;;;;;;;;5037031;28;93324;-71
2023/06/14 09:25:15;;;;;;;3.85;1.58;;;;;;;;;;5034219;28;92523;-71
2023/06/14 09:28:01;;;;;;;;;;;;;;;;;;5034857;28;91876;-69
2023/06/14 09:30:28;;;;;;;3.90;1.60;;;;;;;;;;5034426;28;123488;-71
2023/06/14 09:32:55;;;;;;;8.48;1.40;;;;;;;;;;5033806;28;92474;-71
2023/06/14 09:35:21;;;;;;;6.63;1.30;;;;;;;;;;5032535;28;95141;-71
2023/06/14 09:37:47;;;;;;;2.92;1.50;;;;;;;;;;5033663;28;93395;-71
2023/06/14 09:40:20;;;;;;;2.38;1.38;;;;;;;;;;5034456;28;92434;-71
2023/06/14 09:42:47;;;;;;;2.22;1.38;;;;;;;;;;5033554;28;93528;-71
2023/06/14 09:45:13;;;;;;;11.88;1.75;;;;;;;;;;5036747;28;92645;-71
2023/06/14 09:47:41;;;;;;;4.72;1.67;;;;;;;;;;5033333;27;93142;-71
2023/06/14 09:50:22;;;;;;;3.53;1.30;;;;;;;;;;5034084;28;94984;-71
2023/06/14 09:52:49;;;;;;;9.98;1.33;;;;;;;;;;5034474;28;91678;-71
2023/06/14 09:55:16;;;;;;;4.20;1.50;;;;;;;;;;5033780;28;92535;-71
2023/06/14 09:57:45;;;;;;;1.48;1.30;;;;;;;;;;5033492;28;93398;-71
2023/06/14 10:00:13;;;;;;;4.25;1.23;;;;;;;;;;5032218;27;94844;-71
2023/06/14 10:02:42;;;;;;;4.45;1.73;;;;;;;;;;5037184;28;95538;-71
2023/06/14 10:05:11;;;;;;;2.17;1.20;;;;;;;;;;5037469;28;94595;-72
2023/06/14 10:07:59;;;;;;;1.73;0.98;;;;;;;;;;5040418;27;92394;-71
2023/06/14 10:10:25;;;;;;;4.32;1.25;;;;;;;;;;5036903;28;93999;-71
2023/06/14 10:12:52;;;;;;;6.50;1.30;;;;;;;;;;5037057;27;92681;-72
2023/06/14 10:15:51;;;;;;;6.97;1.85;;;;;;;;;;5019088;28;92940;-71
2023/06/14 10:18:22;;;;;;;3.60;1.70;;;;;;;;;;4935325;28;92945;-72
2023/06/14 10:20:55;;;;;;;4.70;1.55;;;;;;;;;;4935621;28;92624;-71
2023/06/14 10:23:23;;;;;;;2.20;1.27;;;;;;;;;;4935913;28;94232;-71
2023/06/14 10:25:50;;;;;;;6.88;1.60;;;;;;;;;;4933227;28;96000;-71
2023/06/14 10:28:18;;;;;;;2.13;1.35;;;;;;;;;;4938883;28;92658;-71
2023/06/14 10:31:06;;;;;;;6.00;1.50;;;;;;;;;;4935578;28;93404;-71
2023/06/14 10:33:34;;;;;;;2.92;1.35;;;;;;;;;;4935807;28;92670;-71
2023/06/14 10:36:18;;;;;;;10.80;1.25;;;;;;;;;;4935543;28;92994;-71
2023/06/14 10:38:45;;;;;;;8.50;1.40;;;;;;;;;;4935297;28;93834;-71
2023/06/14 10:41:11;;;;;;;2.35;1.30;;;;;;;;;;4935441;28;92515;-71
2023/06/14 10:43:37;;;;;;;7.90;1.40;;;;;;;;;;4935984;28;93135;-71
2023/06/14 10:46:13;;;;;;;3.40;1.30;;;;;;;;;;4935186;28;94722;-72
2023/06/14 10:48:41;;;;;;;4.50;1.58;;;;;;;;;;4935316;28;92600;-71
2023/06/14 10:51:16;;;;;;;13.10;1.88;;;;;;;;;;4936493;28;95031;-71
2023/06/14 10:53:42;;;;;;;5.50;1.27;;;;;;;;;;4965818;28;92526;-72
2023/06/14 10:56:11;;;;;;;11.93;1.48;;;;;;;;;;5016784;28;94583;-71
2023/06/14 10:58:37;;;;;;;13.77;1.85;;;;;;;;;;5015870;28;93506;-71
2023/06/14 11:01:03;;;;;;;2.78;1.30;;;;;;;;;;5016723;28;92839;-72
2023/06/14 11:03:48;;;;;;;1.20;1.10;;;;;;;;;;5016053;28;93141;-71
2023/06/14 11:06:15;;;;;;;4.20;1.20;;;;;;;;;;5015989;28;93764;-72
2023/06/14 11:08:48;;;;;;;4.90;1.33;;;;;;;;;;5016962;28;91684;-71
2023/06/14 11:11:14;;;;;;;1.67;1.40;;;;;;;;;;4998832;28;93303;-71
2023/06/14 11:13:45;;;;;;;2.95;1.40;;;;;;;;;;5018216;28;94359;-71
2023/06/14 11:16:15;;;;;;;1.25;1.10;;;;;;;;;;5016831;28;94949;-71
2023/06/14 11:18:42;;;;;;;4.65;1.50;;;;;;;;;;5035644;27;93339;-73
2023/06/14 11:21:08;;;;;;;2.35;1.48;;;;;;;;;;5036580;27;92506;-71
2023/06/14 11:23:35;;;;;;;1.48;1.27;;;;;;;;;;5036057;28;93210;-71
2023/06/14 11:26:04;;;;;;;1.63;1.30;;;;;;;;;;5035625;28;93653;-71
2023/06/14 11:28:37;;;;;;;2.85;1.50;;;;;;;;;;5036308;28;92403;-71
2023/06/14 11:31:04;;;;;;;6.93;1.40;;;;;;;;;;5035918;28;93314;-71
2023/06/14 11:33:31;;;;;;;2.25;1.30;;;;;;;;;;5035583;27;92656;-72
2023/06/14 11:35:57;;;;;;;6.47;1.50;;;;;;;;;;5039080;27;92398;-71
2023/06/14 11:38:25;;;;;;;6.68;1.65;;;;;;;;;;5035695;27;93513;-71
2023/06/14 11:40:51;;;;;;;5.78;1.38;;;;;;;;;;5034392;28;94885;-71
2023/06/14 11:43:18;;;;;;;4.28;1.58;;;;;;;;;;5036177;27;97041;-71
2023/06/14 11:45:47;;;;;;;9.23;1.40;;;;;;;;;;5035304;28;93613;-71
2023/06/14 11:48:35;;;;;;;6.30;1.80;;;;;;;;;;5035830;27;92728;-71
2023/06/14 11:51:02;;;;;;;5.32;1.63;;;;;;;;;;5035716;28;93297;-72
2023/06/14 11:53:28;;;;;;;6.07;1.30;;;;;;;;;;5035213;28;93424;-72
2023/06/14 11:55:54;;;;;;;6.85;1.15;;;;;;;;;;5017728;28;92823;-71
2023/06/14 11:58:21;;;;;;;7.25;1.40;;;;;;;;;;5038380;28;93187;-72
2023/06/14 12:00:49;;;;;;;7.80;1.85;;;;;;;;;;5035332;27;92405;-71
2023/06/14 12:03:15;;;;;;;3.70;1.40;;;;;;;;;;5035474;28;93180;-71
2023/06/14 12:05:41;;;;;;;5.55;1.50;;;;;;;;;;5033191;28;96375;-72
2023/06/14 12:08:08;;;;;;;1.95;1.20;;;;;;;;;;5035425;28;92518;-72
2023/06/14 12:10:43;;;;;;;3.97;1.45;;;;;;;;;;5035288;28;92376;-72
2023/06/14 12:13:10;;;;;;;7.28;1.60;;;;;;;;;;5034723;28;93633;-72
2023/06/14 12:15:36;;;;;;;12.35;1.73;;;;;;;;;;5035066;28;92456;-72
2023/06/14 12:18:09;;;;;;;5.15;1.27;;;;;;;;;;5038141;28;93324;-72
2023/06/14 12:20:36;;;;;;;12.15;1.60;;;;;;;;;;5035171;27;92456;-72
2023/06/14 12:23:03;;;;;;;4.03;1.50;;;;;;;;;;5035615;27;93125;-72
2023/06/14 12:25:34;;;;;;;5.20;1.10;;;;;;;;;;5034928;27;94414;-71
2023/06/14 12:28:07;;;;;;;4.47;1.30;;;;;;;;;;5034834;27;92492;-71
2023/06/14 12:30:34;;;;;;;5.45;1.50;;;;;;;;;;5033378;28;94889;-71
2023/06/14 12:33:01;;;;;;;2.22;1.40;;;;;;;;;;5034581;28;93488;-71
2023/06/14 12:35:28;;;;;;;7.40;1.50;;;;;;;;;;5034912;28;92445;-71
2023/06/14 12:37:54;;;;;;;4.47;1.48;;;;;;;;;;5034589;28;93235;-72
2023/06/14 12:40:21;;;;;;;7.68;1.40;;;;;;;;;;5037590;28;93474;-72
2023/06/14 12:42:47;;;;;;;11.43;1.58;;;;;;;;;;5035544;28;94453;-71
2023/06/14 12:45:14;;;;;;;9.70;1.30;;;;;;;;;;5034110;28;93497;-70
2023/06/14 12:47:42;;;;;;;5.93;1.67;;;;;;;;;;5035003;28;91657;-72
2023/06/14 12:50:08;;;;;;;5.60;1.70;;;;;;;;;;5033764;28;93941;-72
2023/06/14 12:52:35;;;;;;;4.03;1.25;;;;;;;;;;5034319;27;93235;-73
2023/06/14 12:55:05;;;;;;;4.45;1.40;;;;;;;;;;5033338;28;94999;-70
2023/06/14 12:57:32;;;;;;;5.07;1.30;;;;;;;;;;5034239;28;95587;-70
2023/06/14 13:00:00;;;;;;;6.03;1.40;;;;;;;;;;5035011;28;93383;-70
2023/06/14 13:02:26;;;;;;;8.18;1.70;;;;;;;;;;5037634;28;92475;-70
2023/06/14 13:04:53;;;;;;;4.03;1.13;;;;;;;;;;5034214;27;93223;-70
2023/06/14 13:07:19;;;;;;;15.43;1.70;;;;;;;;;;5034216;28;92446;-70
2023/06/14 13:09:46;;;;;;;4.88;1.40;;;;;;;;;;5034300;28;93231;-72
2023/06/14 13:12:12;;;;;;;8.35;1.35;;;;;;;;;;5034654;28;92752;-70
2023/06/14 13:14:40;;;;;;;6.78;1.50;;;;;;;;;;5034199;28;92484;-71
2023/06/14 13:17:12;;;;;;;2.83;1.40;;;;;;;;;;5034300;28;93376;-70
2023/06/14 13:19:39;;;;;;;1.20;1.10;;;;;;;;;;5032684;28;96874;-71
2023/06/14 13:22:05;;;;;;;3.22;1.60;;;;;;;;;;5034439;28;92771;-70
2023/06/14 13:24:31;;;;;;;7.20;1.77;;;;;;;;;;5037461;27;94238;-70
2023/06/14 13:26:58;;;;;;;10.50;2.28;;;;;;;;;;5033625;28;92643;-70
2023/06/14 13:29:25;;;;;;;3.97;1.52;;;;;;;;;;5034300;27;93235;-70
2023/06/14 13:31:51;;;;;;;2.15;1.42;;;;;;;;;;5033811;28;93584;-70
2023/06/14 13:34:18;;;;;;;0.98;0.98;;;;;;;;;;5034009;28;92447;-70
2023/06/14 13:36:44;;;;;;;3.95;1.60;;;;;;;;;;5033839;28;93086;-71
2023/06/14 13:39:11;;;;;;;4.00;1.48;;;;;;;;;;5033755;28;93739;-70
2023/06/14 13:41:38;;;;;;;24.27;1.95;;;;;;;;;;5033922;27;92713;-71
2023/06/14 13:44:04;;;;;;;2.45;1.35;;;;;;;;;;5031984;28;94779;-71
2023/06/14 13:46:31;;;;;;;2.40;1.27;;;;;;;;;;5037070;28;94592;-70
2023/06/14 13:48:58;;;;;;;3.00;1.27;;;;;;;;;;5033757;28;93007;-70
2023/06/14 13:51:26;;;;;;;2.50;1.27;;;;;;;;;;5033732;28;93532;-71
2023/06/14 13:53:53;;;;;;;9.07;1.25;;;;;;;;;;5033634;28;92580;-70
2023/06/14 13:56:19;;;;;;;5.50;1.65;;;;;;;;;;5033677;28;93109;-70
2023/06/14 13:58:46;;;;;;;4.88;1.10;;;;;;;;;;5033976;27;93247;-71
2023/06/14 14:01:12;;;;;;;8.07;1.25;;;;;;;;;;5034083;28;92006;-71
2023/06/14 14:03:38;;;;;;;3.72;1.38;;;;;;;;;;5033681;28;92449;-70
2023/06/14 14:06:06;;;;;;;6.20;1.33;;;;;;;;;;5015584;28;93122;-70
2023/06/14 14:08:33;;;;;;;4.38;1.48;;;;;;;;;;5035278;28;94857;-70
2023/06/14 14:10:59;;;;;;;10.57;1.42;;;;;;;;;;5033317;28;93500;-70
2023/06/14 14:13:26;;;;;;;3.80;1.20;;;;;;;;;;5033622;28;92491;-71
2023/06/14 14:15:52;;;;;;;4.05;1.67;;;;;;;;;;5033156;27;93145;-71
2023/06/14 14:18:20;;;;;;;1.40;1.30;;;;;;;;;;5033612;28;94347;-70
2023/06/14 14:20:48;;;;;;;7.82;1.15;;;;;;;;;;5033079;27;92400;-73
2023/06/14 14:23:14;;;;;;;2.05;0.90;;;;;;;;;;5033500;28;93038;-71
2023/06/14 14:25:40;;;;;;;4.38;1.15;;;;;;;;;;5033422;28;92518;-71
2023/06/14 14:28:07;;;;;;;3.78;1.00;;;;;;;;;;5036266;28;92627;-71
2023/06/14 14:30:34;;;;;;;3.70;0.95;;;;;;;;;;5033084;28;93646;-72
2023/06/14 14:33:00;;;;;;;7.70;1.15;;;;;;;;;;5031701;27;94842;-72
2023/06/14 14:35:30;;;;;;;14.68;1.23;;;;;;;;;;5033169;28;95490;-72
2023/06/14 14:37:56;;;;;;;7.93;1.42;;;;;;;;;;5032915;28;94687;-72
2023/06/14 14:40:23;;;;;;;5.05;0.80;;;;;;;;;;5033290;28;92486;-72
2023/06/14 14:42:49;;;;;;;2.63;1.48;;;;;;;;;;5033423;28;93060;-71